Roseville, California
Current Conditions -  °F | °C
As of 7:55 PM on Sunday 23 Nov 2014 (Local Time) from KLHM Reporting Station
Clear Clear  
Wind Chill: 41°   Ceiling: Unl
Heat Index: 41°   Visibility: 10mi
Dew Point: 39°   Wind: 3mph
Humidity: 93%   Direction: 90°E
Pressure: 30.31"   Gusts: NA
Location:  38.75°N, 121.28°W
Report Text: KLHM 240355Z AUTO 09003KT 10SM CLR 05/04 A3031 RMK AO1
Loading
Personal Weather Stations






























Interactive Weather Map New forecast layout! Learn more

10-Day Weather Forecast

Advertisements
Track Severe Weather on mobile